Terminal Aerodrome Forecast
Issued by NWS

Home | Current Version | Previous Version | Graphics & Text | Print | Product List | Glossary On
Versions: 1 2 3 4 5 6 7 8 9 10 11 12 13 14 15 16
000
FTUS43 KICT 181300 AAA
TAFCNU
TAF AMD
KCNU 181354Z 1814/1912 08006KT P6SM SKC
      TEMPO 1814/1815 3SM BR
     FM182000 14008KT P6SM SCT030=

USA.gov is the U.S. government's official web portal to all federal, state and local government web resources and services.